Time;durP1;ratioP1;P1;durP2;ratioP2;P2;SDS_P1;SDS_P2;PMS_P1;PMS_P2;Temp;Humidity;BMP_temperature;BMP_pressure;BME280_temperature;BME280_humidity;BME280_pressure;Samples;Min_cycle;Max_cycle;Signal;HPM_P1;HPM_P2
2021/01/09 00:00:31;;;;;;;23.07;17.97;;;3.10;99.90;;;;;;5013076;28;20170;-86
2021/01/09 00:02:57;;;;;;;21.00;16.70;;;3.10;99.90;;;;;;5013025;28;20177;-86
2021/01/09 00:05:22;;;;;;;25.90;17.93;;;3.20;99.90;;;;;;5013077;28;20709;-86
2021/01/09 00:07:48;;;;;;;23.13;18.60;;;3.10;99.90;;;;;;5013508;28;20177;-87
2021/01/09 00:10:14;;;;;;;23.07;16.63;;;3.00;99.90;;;;;;5013204;28;20175;-84
2021/01/09 00:12:40;;;;;;;23.03;17.67;;;2.90;99.90;;;;;;5013928;28;20213;-85
2021/01/09 00:15:09;;;;;;;27.90;19.07;;;2.90;99.90;;;;;;5012373;28;20186;-85
2021/01/09 00:17:36;;;;;;;25.53;18.87;;;2.90;99.90;;;;;;5012711;28;20166;-85
2021/01/09 00:20:12;;;;;;;28.40;19.57;;;2.90;99.90;;;;;;5012471;28;20569;-85
2021/01/09 00:22:38;;;;;;;23.20;19.07;;;3.00;99.90;;;;;;5012799;28;20170;-85
2021/01/09 00:25:06;;;;;;;24.73;19.50;;;3.00;99.90;;;;;;5013038;28;20210;-86
2021/01/09 00:27:32;;;;;;;31.03;20.10;;;3.00;99.90;;;;;;5013721;28;20221;-85
2021/01/09 00:29:57;;;;;;;26.27;19.67;;;3.00;99.90;;;;;;5005018;28;20599;-86
2021/01/09 00:32:23;;;;;;;27.27;20.03;;;2.90;99.90;;;;;;5004590;28;20189;-85
2021/01/09 00:34:49;;;;;;;24.67;18.67;;;3.00;99.90;;;;;;5012561;28;20178;-85
2021/01/09 00:37:16;;;;;;;24.07;18.43;;;2.90;99.90;;;;;;5012406;28;20170;-86
2021/01/09 00:39:45;;;;;;;26.37;19.70;;;3.00;99.90;;;;;;5012189;28;20530;-85
2021/01/09 00:42:10;;;;;;;23.40;18.67;;;2.90;99.90;;;;;;5012333;28;20236;-84
2021/01/09 00:44:36;;;;;;;24.60;18.90;;;2.90;99.90;;;;;;5012036;28;20210;-85
2021/01/09 00:47:02;;;;;;;24.60;18.77;;;2.80;99.90;;;;;;5011628;28;20248;-85
2021/01/09 00:49:27;;;;;;;26.47;19.57;;;2.80;99.90;;;;;;5012110;28;20201;-85
2021/01/09 00:51:54;;;;;;;25.47;19.87;;;2.80;99.90;;;;;;5012184;28;20178;-86
2021/01/09 00:54:20;;;;;;;26.93;18.50;;;2.90;99.90;;;;;;5012098;28;20184;-85
2021/01/09 00:56:45;;;;;;;23.20;18.00;;;2.90;99.90;;;;;;5012000;28;20170;-85
2021/01/09 00:59:12;;;;;;;22.73;17.57;;;2.90;99.90;;;;;;5011863;28;20178;-84
2021/01/09 01:01:38;;;;;;;21.53;16.93;;;2.80;99.90;;;;;;5012069;28;20634;-86
2021/01/09 01:04:03;;;;;;;24.00;17.93;;;2.90;99.90;;;;;;5011944;28;20268;-86
2021/01/09 01:06:29;;;;;;;23.77;18.13;;;2.90;99.90;;;;;;5011843;28;20181;-85
2021/01/09 01:08:55;;;;;;;24.13;18.77;;;2.90;99.90;;;;;;5012438;28;20281;-86
2021/01/09 01:11:26;;;;;;;24.73;17.83;;;2.90;99.90;;;;;;5011889;28;20184;-85
2021/01/09 01:13:53;;;;;;;22.80;17.40;;;2.90;99.90;;;;;;5011706;28;20178;-85
2021/01/09 01:16:19;;;;;;;24.27;19.33;;;3.00;99.90;;;;;;5011716;28;20178;-84
2021/01/09 01:18:45;;;;;;;24.67;17.93;;;3.00;99.90;;;;;;5012159;28;20217;-85
2021/01/09 01:21:11;;;;;;;25.43;19.30;;;3.10;99.90;;;;;;5011704;28;20214;-85
2021/01/09 01:23:37;;;;;;;24.83;19.07;;;3.10;99.90;;;;;;5011760;28;20214;-85
2021/01/09 01:26:03;;;;;;;22.73;17.37;;;3.10;99.90;;;;;;5011741;28;20657;-85
2021/01/09 01:28:29;;;;;;;24.97;17.77;;;3.00;99.90;;;;;;5011786;28;20182;-84
2021/01/09 01:30:54;;;;;;;20.87;17.30;;;2.90;99.90;;;;;;5011831;28;20175;-85
2021/01/09 01:33:20;;;;;;;22.13;16.83;;;3.00;99.90;;;;;;5011816;28;20178;-86
2021/01/09 01:35:48;;;;;;;22.50;17.93;;;2.90;99.90;;;;;;5011780;28;20197;-86
2021/01/09 01:38:14;;;;;;;24.93;18.17;;;2.90;99.90;;;;;;5011716;28;20639;-86
2021/01/09 01:40:40;;;;;;;21.53;17.73;;;2.90;99.90;;;;;;5012058;28;20875;-83
2021/01/09 01:43:13;;;;;;;25.40;17.50;;;2.80;99.90;;;;;;5011409;28;20201;-84
2021/01/09 01:45:39;;;;;;;23.50;17.87;;;2.90;99.90;;;;;;5011973;28;20277;-84
2021/01/09 01:48:09;;;;;;;24.37;19.10;;;3.10;99.90;;;;;;5012917;28;20245;-86
2021/01/09 01:50:38;;;;;;;24.33;18.70;;;3.00;99.90;;;;;;5011726;28;20190;-84
2021/01/09 01:53:06;;;;;;;23.10;17.50;;;3.10;99.90;;;;;;5011816;28;20531;-84
2021/01/09 01:55:32;;;;;;;22.00;17.70;;;3.20;99.90;;;;;;5011671;28;20182;-85
2021/01/09 01:57:58;;;;;;;26.50;19.63;;;3.30;99.90;;;;;;5012537;28;20688;-85
2021/01/09 02:00:29;;;;;;;23.17;18.90;;;3.40;99.90;;;;;;5014857;28;20178;-86
2021/01/09 02:02:57;;;;;;;24.00;19.10;;;3.20;99.90;;;;;;5015016;28;20273;-85
2021/01/09 02:05:25;;;;;;;23.77;18.23;;;3.40;99.90;;;;;;5015128;28;20266;-85
2021/01/09 02:07:55;;;;;;;24.03;18.83;;;3.50;99.90;;;;;;5015054;28;20178;-86
2021/01/09 02:10:23;;;;;;;25.37;19.83;;;3.50;99.90;;;;;;5014894;28;20186;-85
2021/01/09 02:13:15;;;;;;;28.97;22.27;;;3.60;99.90;;;;;;5014870;28;20178;-86
2021/01/09 02:15:41;;;;;;;30.10;21.90;;;3.80;99.90;;;;;;5014137;28;20174;-85
2021/01/09 02:18:07;;;;;;;28.43;21.63;;;3.80;99.90;;;;;;5014703;28;20650;-85
2021/01/09 02:20:36;;;;;;;31.80;22.10;;;3.80;99.90;;;;;;5014625;28;20188;-85
2021/01/09 02:23:02;;;;;;;28.63;21.27;;;3.80;99.90;;;;;;5014484;28;20182;-84
2021/01/09 02:25:28;;;;;;;26.10;20.63;;;3.80;99.90;;;;;;5014604;28;20183;-85
2021/01/09 02:27:54;;;;;;;26.40;19.57;;;3.70;99.90;;;;;;5014328;28;20205;-84
2021/01/09 02:30:25;;;;;;;25.90;19.33;;;3.70;99.90;;;;;;5014773;28;20269;-85
2021/01/09 02:33:05;;;;;;;27.43;19.57;;;3.60;99.90;;;;;;5014734;28;20174;-84
2021/01/09 02:35:33;;;;;;;26.27;19.50;;;3.60;99.90;;;;;;5014558;28;20639;-84
2021/01/09 02:38:00;;;;;;;28.10;19.43;;;3.60;99.90;;;;;;5014744;28;20201;-85
2021/01/09 02:40:26;;;;;;;24.40;18.20;;;3.50;99.90;;;;;;5014230;28;20666;-84
2021/01/09 02:42:52;;;;;;;25.23;18.53;;;3.70;99.90;;;;;;5014230;28;20635;-84
2021/01/09 02:45:17;;;;;;;22.07;17.30;;;3.50;99.90;;;;;;5014390;28;20596;-85
2021/01/09 02:47:43;;;;;;;23.87;17.97;;;3.50;99.90;;;;;;5014414;28;20232;-84
2021/01/09 02:50:12;;;;;;;20.93;16.97;;;3.40;99.90;;;;;;5014977;28;20206;-84
2021/01/09 02:52:39;;;;;;;21.27;17.27;;;3.30;99.90;;;;;;5015001;28;20324;-84
2021/01/09 02:55:05;;;;;;;21.73;17.00;;;3.20;99.90;;;;;;5014430;28;20174;-86
2021/01/09 02:57:31;;;;;;;21.33;16.97;;;3.20;99.90;;;;;;5014259;28;20216;-84
2021/01/09 02:59:57;;;;;;;21.20;16.57;;;3.10;99.90;;;;;;5014453;28;20182;-86
2021/01/09 03:02:22;;;;;;;19.50;15.87;;;3.10;99.90;;;;;;5013938;28;20236;-84
2021/01/09 03:04:48;;;;;;;22.13;16.73;;;3.00;99.90;;;;;;5014031;28;20210;-85
2021/01/09 03:07:14;;;;;;;20.60;16.60;;;2.90;99.90;;;;;;5013856;28;20171;-84
2021/01/09 03:09:39;;;;;;;19.83;15.83;;;2.80;99.90;;;;;;5013089;28;20662;-85
2021/01/09 03:12:06;;;;;;;22.50;16.77;;;2.70;99.90;;;;;;5015315;28;20162;-84
2021/01/09 03:14:32;;;;;;;20.37;16.07;;;2.50;99.90;;;;;;5013718;28;20174;-86
2021/01/09 03:16:58;;;;;;;22.23;16.30;;;2.30;99.90;;;;;;5014059;28;20209;-85
2021/01/09 03:19:23;;;;;;;22.60;16.90;;;2.10;99.90;;;;;;5013601;28;20205;-84
2021/01/09 03:21:49;;;;;;;22.30;16.07;;;1.90;99.90;;;;;;5014038;28;20190;-85
2021/01/09 03:24:16;;;;;;;21.83;16.37;;;1.80;99.90;;;;;;5013665;28;20206;-85
2021/01/09 03:26:41;;;;;;;25.93;18.07;;;1.70;99.90;;;;;;5013838;28;20541;-85
2021/01/09 03:29:07;;;;;;;23.03;16.43;;;1.80;99.90;;;;;;5013760;28;20174;-84
2021/01/09 03:31:33;;;;;;;22.93;17.70;;;1.90;99.90;;;;;;5013920;28;21080;-84
2021/01/09 03:33:58;;;;;;;25.23;18.07;;;1.90;99.90;;;;;;5013493;28;20174;-84
2021/01/09 03:36:24;;;;;;;22.77;17.20;;;1.90;99.90;;;;;;5013407;28;20167;-84
2021/01/09 03:38:50;;;;;;;20.63;16.50;;;2.10;99.90;;;;;;5012815;28;20201;-85
2021/01/09 03:41:15;;;;;;;22.57;17.00;;;2.10;99.90;;;;;;5013310;28;20214;-84
2021/01/09 03:43:42;;;;;;;21.23;17.20;;;2.00;99.90;;;;;;5013060;28;20214;-85
2021/01/09 03:46:08;;;;;;;25.63;17.23;;;2.10;99.90;;;;;;5013402;28;20170;-84
2021/01/09 03:48:33;;;;;;;27.27;18.70;;;2.00;99.90;;;;;;5012939;28;20700;-85
2021/01/09 03:50:59;;;;;;;28.90;18.57;;;2.10;99.90;;;;;;5013233;28;20201;-85
2021/01/09 03:53:24;;;;;;;30.60;19.33;;;2.10;99.90;;;;;;5012985;28;20185;-85
2021/01/09 03:55:50;;;;;;;39.93;18.87;;;2.10;99.90;;;;;;5013033;28;20179;-85
2021/01/09 03:58:16;;;;;;;40.17;19.10;;;2.00;99.90;;;;;;5013117;28;20178;-86
2021/01/09 04:00:41;;;;;;;43.10;18.37;;;2.10;99.90;;;;;;5013018;28;20193;-84
2021/01/09 04:03:08;;;;;;;50.67;19.17;;;2.20;99.90;;;;;;5013031;28;20257;-85
2021/01/09 04:05:33;;;;;;;41.73;19.83;;;2.30;99.90;;;;;;5012817;28;20236;-85
2021/01/09 04:07:59;;;;;;;196.80;25.20;;;2.40;99.90;;;;;;5013043;28;20591;-85
2021/01/09 04:10:24;;;;;;;69.37;19.77;;;2.40;99.90;;;;;;5013010;28;20178;-84
2021/01/09 04:12:50;;;;;;;114.13;19.90;;;2.40;99.90;;;;;;5013032;28;20181;-85
2021/01/09 04:15:16;;;;;;;212.07;24.33;;;2.40;99.90;;;;;;5012574;28;20225;-84
2021/01/09 04:17:42;;;;;;;57.73;17.77;;;2.30;99.90;;;;;;5013013;28;20175;-84
2021/01/09 04:20:08;;;;;;;63.77;18.17;;;2.30;99.90;;;;;;5012585;28;20545;-85
2021/01/09 04:22:34;;;;;;;51.23;17.43;;;2.30;99.90;;;;;;5011219;28;20439;-86
2021/01/09 04:25:00;;;;;;;134.97;22.07;;;2.30;99.90;;;;;;5012740;28;20214;-85
2021/01/09 04:27:26;;;;;;;239.50;28.83;;;2.40;99.90;;;;;;5012647;28;20643;-85
2021/01/09 04:29:51;;;;;;;319.33;34.00;;;2.30;99.90;;;;;;5013840;28;20541;-85
2021/01/09 04:32:17;;;;;;;268.00;31.00;;;2.20;99.90;;;;;;5012447;28;20181;-84
2021/01/09 04:34:46;;;;;;;220.57;29.03;;;2.10;99.90;;;;;;5012695;28;20170;-84
2021/01/09 04:37:11;;;;;;;332.77;37.23;;;2.00;99.90;;;;;;5012445;28;20618;-85
2021/01/09 04:39:37;;;;;;;284.23;32.77;;;2.00;99.90;;;;;;5012325;28;20229;-86
2021/01/09 04:42:03;;;;;;;226.53;28.43;;;1.90;99.90;;;;;;5012639;28;20170;-84
2021/01/09 04:44:29;;;;;;;139.70;25.97;;;1.90;99.90;;;;;;5012386;28;20216;-85
2021/01/09 04:47:00;;;;;;;210.67;28.53;;;1.90;99.90;;;;;;5013236;28;20170;-85
2021/01/09 04:49:27;;;;;;;284.73;33.03;;;1.90;99.90;;;;;;5012312;28;20190;-85
2021/01/09 04:51:54;;;;;;;90.03;21.10;;;1.90;99.90;;;;;;5012685;28;20208;-83
2021/01/09 04:54:23;;;;;;;300.10;30.90;;;1.80;99.90;;;;;;5012530;28;20210;-85
2021/01/09 04:56:54;;;;;;;283.50;30.87;;;1.70;99.90;;;;;;5012001;28;20178;-85
2021/01/09 04:59:23;;;;;;;92.03;22.60;;;1.50;99.90;;;;;;5012308;28;20178;-85
2021/01/09 05:01:50;;;;;;;145.93;24.90;;;1.50;99.90;;;;;;5012535;28;20600;-84
2021/01/09 05:04:17;;;;;;;104.33;22.17;;;1.50;99.90;;;;;;5012168;28;20693;-84
2021/01/09 05:06:44;;;;;;;85.33;20.60;;;1.50;99.90;;;;;;5013313;28;20641;-84
2021/01/09 05:09:10;;;;;;;53.93;18.30;;;1.50;99.90;;;;;;5012031;28;20494;-86
2021/01/09 05:11:38;;;;;;;56.53;18.43;;;1.50;99.90;;;;;;5011767;28;20523;-86
2021/01/09 05:14:05;;;;;;;173.37;24.30;;;1.70;99.90;;;;;;5012450;28;20256;-85
2021/01/09 05:16:35;;;;;;;54.40;17.40;;;1.60;99.90;;;;;;5016721;28;20174;-84
2021/01/09 05:19:03;;;;;;;72.37;17.70;;;1.70;99.90;;;;;;5013748;28;20181;-84
2021/01/09 05:21:30;;;;;;;113.17;20.20;;;1.70;99.90;;;;;;5013001;28;20198;-85
2021/01/09 05:23:58;;;;;;;82.30;18.13;;;1.80;99.90;;;;;;5012679;28;20689;-84
2021/01/09 05:26:24;;;;;;;55.13;16.33;;;1.80;99.90;;;;;;5012100;28;20170;-86
2021/01/09 05:28:55;;;;;;;60.67;17.23;;;1.90;99.90;;;;;;5012254;28;20244;-87
2021/01/09 05:31:23;;;;;;;54.13;17.70;;;2.00;99.90;;;;;;5012292;28;20173;-86
2021/01/09 05:33:50;;;;;;;51.43;16.40;;;1.80;99.90;;;;;;5014858;28;20701;-86
2021/01/09 05:36:17;;;;;;;73.70;17.63;;;1.90;99.90;;;;;;5015809;28;20174;-87
2021/01/09 05:38:45;;;;;;;91.40;18.73;;;1.90;99.90;;;;;;5015864;28;20174;-87
2021/01/09 05:41:16;;;;;;;90.83;18.53;;;2.00;99.90;;;;;;5016115;28;20181;-86
2021/01/09 05:43:46;;;;;;;194.27;24.87;;;2.00;99.90;;;;;;5015939;28;20198;-87
2021/01/09 05:46:15;;;;;;;83.73;17.40;;;2.00;99.90;;;;;;5015847;28;20213;-87
2021/01/09 05:48:42;;;;;;;65.10;18.10;;;2.00;99.90;;;;;;5015285;28;20186;-85
2021/01/09 05:51:23;;;;;;;60.83;17.20;;;1.90;99.90;;;;;;5015528;28;20182;-85
2021/01/09 05:54:04;;;;;;;85.47;17.17;;;1.70;99.90;;;;;;5015866;28;20623;-85
2021/01/09 05:56:30;;;;;;;90.33;17.37;;;1.60;99.90;;;;;;5015223;28;20201;-85
2021/01/09 05:58:56;;;;;;;98.90;18.97;;;1.40;99.90;;;;;;5015443;28;20642;-84
2021/01/09 06:01:26;;;;;;;71.40;17.50;;;1.30;99.90;;;;;;5015068;28;20209;-84
2021/01/09 06:04:18;;;;;;;70.17;16.80;;;1.20;99.90;;;;;;5015050;28;20263;-85
2021/01/09 06:06:49;;;;;;;64.60;16.17;;;1.20;99.90;;;;;;5014616;28;20212;-85
2021/01/09 06:09:24;;;;;;;92.23;17.20;;;1.10;99.90;;;;;;5015249;28;20192;-84
2021/01/09 06:11:54;;;;;;;53.40;15.87;;;1.20;99.90;;;;;;5014970;28;20185;-85
2021/01/09 06:14:26;;;;;;;34.67;14.80;;;1.20;99.90;;;;;;5014972;28;20251;-85
2021/01/09 06:16:54;;;;;;;172.77;20.03;;;1.30;99.90;;;;;;5014924;28;20270;-85
2021/01/09 06:19:23;;;;;;;69.47;16.17;;;1.40;99.90;;;;;;5014593;28;20634;-84
2021/01/09 06:21:50;;;;;;;81.40;16.80;;;1.30;99.90;;;;;;5014684;28;20178;-88
2021/01/09 06:24:17;;;;;;;35.40;15.20;;;1.40;99.90;;;;;;5015100;28;20206;-85
2021/01/09 06:26:44;;;;;;;71.70;16.23;;;1.50;99.90;;;;;;5014668;28;20638;-85
2021/01/09 06:29:20;;;;;;;45.80;14.43;;;1.40;99.90;;;;;;5014746;28;20189;-84
2021/01/09 06:32:03;;;;;;;96.07;16.60;;;1.40;99.90;;;;;;5014937;28;20177;-85
2021/01/09 06:34:30;;;;;;;50.73;14.50;;;1.50;99.90;;;;;;5014614;28;20630;-86
2021/01/09 06:37:04;;;;;;;33.23;13.70;;;1.50;99.90;;;;;;5014470;28;20174;-85
2021/01/09 06:39:33;;;;;;;118.37;17.30;;;1.30;99.90;;;;;;5014434;28;20206;-86
2021/01/09 06:42:00;;;;;;;44.10;14.80;;;1.30;99.90;;;;;;5014463;28;20205;-86
2021/01/09 06:44:26;;;;;;;44.93;14.07;;;1.20;99.90;;;;;;5013642;28;20605;-85
2021/01/09 06:46:53;;;;;;;44.73;14.43;;;1.20;99.90;;;;;;5014163;28;20193;-85
2021/01/09 06:49:21;;;;;;;52.13;15.70;;;1.20;99.90;;;;;;5014318;28;20618;-85
2021/01/09 06:52:01;;;;;;;50.03;14.47;;;1.30;99.90;;;;;;5014536;28;20185;-85
2021/01/09 06:54:47;;;;;;;31.00;14.27;;;1.30;99.90;;;;;;5014129;28;20177;-85
2021/01/09 06:57:16;;;;;;;35.50;12.93;;;1.20;99.90;;;;;;5013880;28;20557;-85
2021/01/09 06:59:47;;;;;;;31.73;14.23;;;1.20;99.90;;;;;;5014632;28;20178;-85
2021/01/09 07:02:25;;;;;;;29.03;12.60;;;1.20;99.90;;;;;;5014437;28;20231;-86
2021/01/09 07:05:20;;;;;;;41.87;15.00;;;1.20;99.90;;;;;;5015264;28;20292;-85
2021/01/09 07:07:56;;;;;;;37.50;14.00;;;1.10;99.90;;;;;;5004876;28;20260;-85
2021/01/09 07:10:29;;;;;;;67.47;15.77;;;1.20;99.90;;;;;;5013725;28;20169;-87
2021/01/09 07:13:07;;;;;;;22.77;13.13;;;1.40;99.90;;;;;;5013646;28;20201;-84
2021/01/09 07:15:35;;;;;;;28.83;13.57;;;1.40;99.90;;;;;;5013495;28;20179;-86
2021/01/09 07:18:06;;;;;;;30.47;14.57;;;1.40;99.90;;;;;;5013944;28;20240;-85
2021/01/09 07:20:38;;;;;;;33.63;14.37;;;1.50;99.90;;;;;;5013508;28;20187;-85
2021/01/09 07:23:09;;;;;;;24.40;14.10;;;1.50;99.90;;;;;;5013410;28;20178;-84
2021/01/09 07:25:39;;;;;;;25.67;12.13;;;1.50;99.90;;;;;;5014958;28;20185;-86
2021/01/09 07:28:10;;;;;;;23.20;13.67;;;1.70;99.90;;;;;;5019107;28;20212;-84
2021/01/09 07:30:35;;;;;;;33.10;14.87;;;1.70;99.90;;;;;;5016455;28;20269;-86
2021/01/09 07:33:01;;;;;;;37.40;14.97;;;1.90;99.90;;;;;;5017441;28;20604;-85
2021/01/09 07:35:31;;;;;;;26.50;14.43;;;1.70;99.90;;;;;;5014080;28;20592;-86
2021/01/09 07:38:02;;;;;;;23.87;14.67;;;1.70;99.90;;;;;;5013430;28;20174;-85
2021/01/09 07:40:50;;;;;;;26.63;14.23;;;1.70;99.90;;;;;;5014342;28;20187;-87
2021/01/09 07:43:39;;;;;;;37.03;14.60;;;1.70;99.90;;;;;;5014167;28;20167;-86
2021/01/09 07:46:27;;;;;;;35.43;15.33;;;1.60;99.90;;;;;;5013610;28;20182;-86
2021/01/09 07:48:55;;;;;;;45.67;15.57;;;1.40;99.90;;;;;;5012822;28;20748;-87
2021/01/09 07:51:46;;;;;;;39.30;15.33;;;1.40;99.90;;;;;;5013166;28;20545;-85
2021/01/09 07:54:27;;;;;;;35.30;14.63;;;1.40;99.90;;;;;;5012769;28;20224;-86
2021/01/09 07:56:52;;;;;;;25.10;13.97;;;1.30;99.90;;;;;;5012418;28;20178;-85
2021/01/09 07:59:19;;;;;;;94.80;18.37;;;1.40;99.90;;;;;;5012619;28;20659;-85
2021/01/09 08:01:45;;;;;;;189.17;22.73;;;1.50;99.90;;;;;;5013965;28;20721;-84
2021/01/09 08:04:12;;;;;;;39.33;16.50;;;1.50;99.90;;;;;;5013021;28;20564;-85
2021/01/09 08:06:41;;;;;;;133.03;20.27;;;1.60;99.90;;;;;;5012293;28;20205;-85
2021/01/09 08:09:08;;;;;;;33.40;17.57;;;1.60;99.90;;;;;;5012516;28;20189;-85
2021/01/09 08:11:46;;;;;;;46.50;18.30;;;1.80;99.90;;;;;;5012554;28;20661;-84
2021/01/09 08:14:13;;;;;;;31.13;16.60;;;1.70;99.90;;;;;;5012295;28;20212;-85
2021/01/09 08:16:40;;;;;;;39.40;16.60;;;1.50;99.90;;;;;;5012221;28;20174;-85
2021/01/09 08:19:19;;;;;;;38.17;16.07;;;1.50;99.90;;;;;;5012605;28;20170;-86
2021/01/09 08:21:52;;;;;;;32.17;15.43;;;1.50;99.90;;;;;;5012150;28;20273;-84
2021/01/09 08:24:21;;;;;;;27.97;16.37;;;1.50;99.90;;;;;;5012050;28;20267;-84
2021/01/09 08:26:55;;;;;;;33.63;16.40;;;1.40;99.90;;;;;;5011907;28;20174;-86
2021/01/09 08:29:25;;;;;;;40.80;15.37;;;1.40;99.90;;;;;;5012835;28;20178;-85
2021/01/09 08:31:52;;;;;;;47.40;15.57;;;1.30;99.90;;;;;;5015565;28;20649;-84
2021/01/09 08:34:18;;;;;;;37.77;15.17;;;1.30;99.90;;;;;;5021640;28;20188;-86
2021/01/09 08:36:46;;;;;;;55.00;16.13;;;1.30;99.90;;;;;;5020076;28;20224;-86
2021/01/09 08:39:12;;;;;;;53.77;15.43;;;1.20;99.90;;;;;;5012453;28;20637;-83
2021/01/09 08:41:42;;;;;;;57.20;15.63;;;1.20;99.90;;;;;;4992274;28;20312;-85
2021/01/09 08:44:12;;;;;;;35.40;15.87;;;1.10;99.90;;;;;;4991506;28;20302;-84
2021/01/09 08:46:39;;;;;;;34.30;14.70;;;1.10;99.90;;;;;;5005395;28;20202;-83
2021/01/09 08:49:05;;;;;;;33.17;14.53;;;1.20;99.90;;;;;;5011512;28;20201;-83
2021/01/09 08:51:36;;;;;;;43.47;16.00;;;1.20;99.90;;;;;;5011480;28;20309;-83
2021/01/09 08:54:03;;;;;;;52.10;15.87;;;1.20;99.90;;;;;;5009782;28;20174;-84
2021/01/09 08:56:30;;;;;;;36.73;16.33;;;1.20;99.90;;;;;;5012702;28;20178;-82
2021/01/09 08:59:08;;;;;;;29.60;15.67;;;1.30;99.90;;;;;;5012605;28;20269;-82
2021/01/09 09:01:48;;;;;;;29.00;14.63;;;1.40;99.90;;;;;;5011527;28;20201;-82
2021/01/09 09:04:17;;;;;;;40.13;14.03;;;1.20;99.90;;;;;;5011308;28;20202;-82
2021/01/09 09:06:44;;;;;;;31.70;15.73;;;1.10;99.90;;;;;;5011216;28;20181;-81
2021/01/09 09:09:15;;;;;;;32.57;15.50;;;1.10;99.90;;;;;;5015828;28;20205;-83
2021/01/09 09:11:48;;;;;;;27.70;15.90;;;1.20;99.90;;;;;;5015017;28;20181;-84
2021/01/09 09:14:14;;;;;;;26.67;15.30;;;1.20;99.90;;;;;;5015589;28;20285;-84
2021/01/09 09:16:40;;;;;;;30.07;15.00;;;1.30;99.90;;;;;;5015475;28;20638;-83
2021/01/09 09:19:24;;;;;;;32.23;15.67;;;1.50;99.90;;;;;;5016474;28;20170;-83
2021/01/09 09:21:57;;;;;;;36.07;16.73;;;1.60;99.90;;;;;;4995794;28;20296;-83
2021/01/09 09:24:41;;;;;;;30.13;15.20;;;1.70;99.90;;;;;;5002960;28;20213;-83
2021/01/09 09:27:31;;;;;;;27.53;16.20;;;1.60;99.90;;;;;;5016643;28;20686;-84
2021/01/09 09:30:11;;;;;;;28.83;15.53;;;1.70;99.90;;;;;;5015506;28;20217;-84
2021/01/09 09:32:38;;;;;;;30.37;16.00;;;1.80;99.90;;;;;;5015117;28;20626;-86
2021/01/09 09:35:24;;;;;;;24.43;15.10;;;1.70;99.90;;;;;;5015383;28;20167;-84
2021/01/09 09:37:50;;;;;;;25.93;17.27;;;1.90;99.90;;;;;;5016174;28;20162;-85
2021/01/09 09:40:24;;;;;;;31.10;17.30;;;2.00;99.90;;;;;;5019057;28;20705;-83
2021/01/09 09:42:50;;;;;;;30.73;17.57;;;2.00;99.90;;;;;;5016759;28;20185;-84
2021/01/09 09:45:16;;;;;;;27.77;16.53;;;2.10;99.90;;;;;;5015052;28;20618;-85
2021/01/09 09:47:47;;;;;;;27.07;16.67;;;2.10;99.90;;;;;;5012464;28;20179;-84
2021/01/09 09:50:13;;;;;;;25.80;16.83;;;2.00;99.90;;;;;;5012803;28;20190;-85
2021/01/09 09:52:39;;;;;;;25.43;16.30;;;2.00;99.90;;;;;;5016096;28;20189;-84
2021/01/09 09:55:07;;;;;;;29.00;16.60;;;2.10;99.90;;;;;;5014278;28;20217;-84
2021/01/09 09:57:33;;;;;;;31.40;18.03;;;2.20;99.90;;;;;;5016696;28;20182;-86
2021/01/09 10:00:12;;;;;;;34.80;18.63;;;2.20;99.90;;;;;;5012291;28;20538;-85
2021/01/09 10:02:51;;;;;;;29.30;17.63;;;2.30;99.90;;;;;;5013797;28;20255;-83
2021/01/09 10:05:17;;;;;;;28.50;18.47;;;2.20;99.90;;;;;;5015815;28;20210;-84
2021/01/09 10:07:43;;;;;;;29.20;17.97;;;2.20;99.90;;;;;;5015273;28;20181;-87
2021/01/09 10:10:19;;;;;;;30.10;17.73;;;2.30;99.90;;;;;;5014268;28;20177;-81
2021/01/09 10:12:58;;;;;;;28.57;18.00;;;2.40;99.90;;;;;;5014568;28;20174;-85
2021/01/09 10:15:27;;;;;;;26.77;17.03;;;2.30;99.90;;;;;;5014717;28;20185;-85
2021/01/09 10:17:53;;;;;;;27.20;17.70;;;2.30;99.90;;;;;;5013887;28;20182;-83
2021/01/09 10:20:19;;;;;;;25.03;17.33;;;2.30;99.90;;;;;;5012180;28;20202;-84
2021/01/09 10:22:45;;;;;;;28.40;17.93;;;2.50;99.90;;;;;;5011133;28;20190;-85
2021/01/09 10:25:10;;;;;;;28.37;17.80;;;2.50;99.90;;;;;;5012059;28;20218;-87
2021/01/09 10:27:36;;;;;;;32.13;19.07;;;2.60;99.90;;;;;;5012929;28;20181;-86
2021/01/09 10:30:03;;;;;;;29.50;18.90;;;2.60;99.90;;;;;;5015110;28;20170;-87
2021/01/09 10:32:29;;;;;;;35.43;17.83;;;2.60;99.90;;;;;;5013886;28;20178;-86
2021/01/09 10:34:55;;;;;;;28.33;18.87;;;2.80;99.90;;;;;;5013726;28;20170;-85
2021/01/09 10:37:21;;;;;;;33.47;19.67;;;2.70;99.90;;;;;;5015537;28;20209;-86
2021/01/09 10:39:47;;;;;;;31.23;18.60;;;2.80;99.90;;;;;;5013874;28;20196;-87
2021/01/09 10:42:13;;;;;;;28.27;18.13;;;2.60;99.90;;;;;;5015423;28;20150;-86
2021/01/09 10:44:39;;;;;;;31.37;19.13;;;2.60;99.90;;;;;;5014693;28;20209;-85
2021/01/09 10:47:05;;;;;;;29.33;18.93;;;2.70;99.90;;;;;;5012125;28;20177;-86
2021/01/09 10:49:30;;;;;;;33.87;20.60;;;2.60;99.90;;;;;;5013195;28;20193;-86
2021/01/09 10:51:56;;;;;;;31.07;20.57;;;2.60;99.90;;;;;;5015316;28;20174;-86
2021/01/09 10:54:23;;;;;;;33.57;20.97;;;2.70;99.90;;;;;;5013524;28;20174;-84
2021/01/09 10:56:48;;;;;;;32.87;20.87;;;2.70;99.90;;;;;;5013739;28;20187;-83
2021/01/09 10:59:14;;;;;;;37.53;20.93;;;2.80;99.90;;;;;;5013298;28;20185;-85
2021/01/09 11:01:39;;;;;;;34.40;21.63;;;2.80;99.90;;;;;;5014905;28;20233;-84
2021/01/09 11:04:05;;;;;;;37.03;21.40;;;2.70;99.90;;;;;;5013507;28;20701;-84
2021/01/09 11:06:31;;;;;;;35.40;20.93;;;2.80;99.90;;;;;;5013407;28;20185;-85
2021/01/09 11:08:57;;;;;;;35.33;22.70;;;2.80;99.90;;;;;;5010097;28;20189;-84
2021/01/09 11:11:23;;;;;;;36.40;21.73;;;2.80;99.90;;;;;;5009822;28;20281;-85
2021/01/09 11:13:49;;;;;;;36.10;21.73;;;2.70;99.90;;;;;;5012879;28;20186;-86
2021/01/09 11:16:22;;;;;;;39.47;22.23;;;2.80;99.90;;;;;;5012977;28;20174;-85
2021/01/09 11:18:48;;;;;;;38.60;22.33;;;2.80;99.90;;;;;;5013982;28;20182;-86
2021/01/09 11:21:15;;;;;;;37.90;23.23;;;2.90;99.90;;;;;;5013984;28;20178;-86
2021/01/09 11:23:44;;;;;;;40.33;21.63;;;3.00;99.90;;;;;;5012466;28;20213;-85
2021/01/09 11:26:20;;;;;;;35.03;22.47;;;3.00;99.90;;;;;;5013207;28;20182;-85
2021/01/09 11:28:46;;;;;;;36.67;22.03;;;3.00;99.90;;;;;;5016803;28;20209;-87
2021/01/09 11:31:12;;;;;;;39.10;23.10;;;3.00;99.90;;;;;;5021251;28;20181;-87
2021/01/09 11:33:39;;;;;;;36.93;22.67;;;2.80;99.90;;;;;;5032277;28;20166;-86
2021/01/09 11:36:08;;;;;;;37.60;22.43;;;2.60;99.90;;;;;;5016603;28;20228;-85
2021/01/09 11:38:34;;;;;;;35.63;22.27;;;2.70;99.90;;;;;;5006043;28;20179;-87
2021/01/09 11:41:02;;;;;;;35.33;22.57;;;3.00;99.90;;;;;;4993703;28;20179;-84
2021/01/09 11:43:30;;;;;;;35.90;22.00;;;3.10;99.90;;;;;;4994383;28;20217;-85
2021/01/09 11:45:59;;;;;;;33.33;22.53;;;3.00;99.90;;;;;;4993132;28;20218;-85
2021/01/09 11:48:25;;;;;;;39.10;23.57;;;3.20;99.90;;;;;;4992910;28;20179;-84
2021/01/09 11:50:51;;;;;;;34.30;22.17;;;3.10;99.90;;;;;;4992701;28;20179;-86
2021/01/09 11:53:17;;;;;;;37.77;22.90;;;3.00;99.90;;;;;;4995534;28;20230;-86
2021/01/09 11:55:43;;;;;;;35.23;23.50;;;3.00;99.90;;;;;;5012454;28;20177;-86
2021/01/09 11:58:08;;;;;;;40.13;24.43;;;3.00;99.90;;;;;;5012370;28;20202;-85
2021/01/09 12:00:34;;;;;;;35.83;23.37;;;3.00;99.90;;;;;;5012099;28;20190;-85
2021/01/09 12:03:00;;;;;;;34.90;23.33;;;3.00;99.90;;;;;;5012799;28;20182;-83
2021/01/09 12:05:25;;;;;;;36.07;23.77;;;3.20;99.90;;;;;;5013532;28;20209;-82
2021/01/09 12:07:51;;;;;;;34.97;23.43;;;3.40;99.90;;;;;;5011349;28;20170;-83
2021/01/09 12:10:16;;;;;;;40.20;25.20;;;3.40;99.90;;;;;;5011912;28;20186;-86
2021/01/09 12:12:42;;;;;;;38.53;24.60;;;3.20;99.90;;;;;;5012147;28;20317;-83
2021/01/09 12:15:09;;;;;;;37.50;23.90;;;3.10;99.90;;;;;;5011392;28;20289;-85
2021/01/09 12:17:36;;;;;;;36.83;23.77;;;3.10;99.90;;;;;;5012650;28;20166;-83
2021/01/09 12:20:03;;;;;;;37.33;24.07;;;3.10;99.90;;;;;;5010785;28;20232;-83
2021/01/09 12:22:31;;;;;;;39.87;23.63;;;3.00;99.90;;;;;;5011727;28;20190;-86
2021/01/09 12:24:57;;;;;;;39.93;24.80;;;3.00;99.90;;;;;;5011464;28;20293;-85
2021/01/09 12:27:24;;;;;;;36.97;23.57;;;3.00;99.90;;;;;;5011943;28;20706;-83
2021/01/09 12:29:50;;;;;;;36.30;23.67;;;2.90;99.90;;;;;;5012496;28;20178;-86
2021/01/09 12:32:15;;;;;;;42.30;23.97;;;3.00;99.90;;;;;;5014326;28;20225;-87
2021/01/09 12:34:41;;;;;;;36.37;23.47;;;2.80;99.90;;;;;;5012764;28;20185;-86
2021/01/09 12:37:07;;;;;;;33.00;21.83;;;2.70;99.90;;;;;;5012366;28;20627;-87
2021/01/09 12:39:33;;;;;;;41.17;23.03;;;2.70;99.90;;;;;;5011682;28;20561;-85
2021/01/09 12:41:58;;;;;;;40.27;24.60;;;2.80;99.90;;;;;;5011201;28;20205;-84